sensor_id;sensor_type;location;lat;lon;timestamp;pressure;altitude;pressure_sealevel;temperature;humidity
25526;BME280;13424;48.424;11.258;2022-09-11T00:02:18;95677.66;;;16.41;86.29
25526;BME280;13424;48.424;11.258;2022-09-11T00:04:43;95686.25;;;16.48;86.02
25526;BME280;13424;48.424;11.258;2022-09-11T00:07:09;95682.28;;;16.26;87.34
25526;BME280;13424;48.424;11.258;2022-09-11T00:09:35;95681.44;;;16.40;86.44
25526;BME280;13424;48.424;11.258;2022-09-11T00:12:02;95673.41;;;16.35;86.34
25526;BME280;13424;48.424;11.258;2022-09-11T00:14:28;95674.44;;;16.34;86.38
25526;BME280;13424;48.424;11.258;2022-09-11T00:16:55;95673.91;;;16.37;86.61
25526;BME280;13424;48.424;11.258;2022-09-11T00:23:11;95673.94;;;16.32;86.21
25526;BME280;13424;48.424;11.258;2022-09-11T00:25:37;95672.31;;;16.31;86.07
25526;BME280;13424;48.424;11.258;2022-09-11T00:28:15;95670.66;;;16.40;85.58
25526;BME280;13424;48.424;11.258;2022-09-11T00:30:43;95667.25;;;16.14;86.42
25526;BME280;13424;48.424;11.258;2022-09-11T00:34:14;95679.88;;;16.19;86.35
25526;BME280;13424;48.424;11.258;2022-09-11T00:36:40;95669.13;;;16.09;86.06
25526;BME280;13424;48.424;11.258;2022-09-11T00:39:07;95674.47;;;16.29;86.17
25526;BME280;13424;48.424;11.258;2022-09-11T00:41:40;95665.84;;;16.37;86.12
25526;BME280;13424;48.424;11.258;2022-09-11T00:47:00;95675.84;;;16.16;86.26
25526;BME280;13424;48.424;11.258;2022-09-11T00:49:37;95675.00;;;16.36;85.47
25526;BME280;13424;48.424;11.258;2022-09-11T00:52:28;95666.69;;;16.23;85.92
25526;BME280;13424;48.424;11.258;2022-09-11T00:55:10;95665.13;;;16.06;86.13
25526;BME280;13424;48.424;11.258;2022-09-11T00:57:49;95659.66;;;16.27;85.23
25526;BME280;13424;48.424;11.258;2022-09-11T01:00:17;95663.47;;;16.10;85.95
25526;BME280;13424;48.424;11.258;2022-09-11T01:02:48;95662.91;;;16.18;85.50
25526;BME280;13424;48.424;11.258;2022-09-11T01:05:15;95659.97;;;16.15;86.42
25526;BME280;13424;48.424;11.258;2022-09-11T01:07:43;95665.13;;;16.01;86.48
25526;BME280;13424;48.424;11.258;2022-09-11T01:10:11;95662.16;;;16.08;86.58
25526;BME280;13424;48.424;11.258;2022-09-11T01:13:12;95658.69;;;15.97;87.10
25526;BME280;13424;48.424;11.258;2022-09-11T01:16:47;95656.25;;;15.96;86.76
25526;BME280;13424;48.424;11.258;2022-09-11T01:29:42;95661.59;;;16.21;85.95
25526;BME280;13424;48.424;11.258;2022-09-11T01:33:23;95663.47;;;16.21;85.85
25526;BME280;13424;48.424;11.258;2022-09-11T01:38:51;95673.41;;;16.35;85.33
25526;BME280;13424;48.424;11.258;2022-09-11T01:44:21;95663.13;;;16.42;85.65
25526;BME280;13424;48.424;11.258;2022-09-11T01:46:52;95671.47;;;16.46;85.92
25526;BME280;13424;48.424;11.258;2022-09-11T01:49:45;95662.13;;;16.28;87.71
25526;BME280;13424;48.424;11.258;2022-09-11T01:52:30;95669.09;;;16.29;87.02
25526;BME280;13424;48.424;11.258;2022-09-11T01:55:15;95656.97;;;16.27;87.28
25526;BME280;13424;48.424;11.258;2022-09-11T01:58:14;95647.03;;;16.27;87.51
25526;BME280;13424;48.424;11.258;2022-09-11T02:00:46;95649.69;;;16.37;87.81
25526;BME280;13424;48.424;11.258;2022-09-11T02:03:28;95652.16;;;16.29;87.73
25526;BME280;13424;48.424;11.258;2022-09-11T02:06:03;95653.53;;;16.16;88.17
25526;BME280;13424;48.424;11.258;2022-09-11T02:08:50;95657.25;;;16.35;87.42
25526;BME280;13424;48.424;11.258;2022-09-11T02:11:20;95657.25;;;16.25;87.46
25526;BME280;13424;48.424;11.258;2022-09-11T02:14:28;95648.66;;;16.23;88.43
25526;BME280;13424;48.424;11.258;2022-09-11T02:17:22;95645.69;;;16.25;88.16
25526;BME280;13424;48.424;11.258;2022-09-11T02:19:56;95640.59;;;16.23;88.52
25526;BME280;13424;48.424;11.258;2022-09-11T02:22:23;95640.03;;;16.26;88.07
25526;BME280;13424;48.424;11.258;2022-09-11T02:24:50;95644.88;;;16.19;88.43
25526;BME280;13424;48.424;11.258;2022-09-11T02:27:26;95630.34;;;16.30;87.63
25526;BME280;13424;48.424;11.258;2022-09-11T02:29:55;95632.47;;;16.33;88.05
25526;BME280;13424;48.424;11.258;2022-09-11T02:32:25;95634.63;;;16.31;87.92
25526;BME280;13424;48.424;11.258;2022-09-11T02:34:56;95643.25;;;16.33;88.09
25526;BME280;13424;48.424;11.258;2022-09-11T02:38:08;95640.66;;;15.98;88.95
25526;BME280;13424;48.424;11.258;2022-09-11T02:41:07;95647.09;;;16.12;88.75
25526;BME280;13424;48.424;11.258;2022-09-11T02:44:06;95635.81;;;15.95;88.74
25526;BME280;13424;48.424;11.258;2022-09-11T02:53:33;95632.56;;;16.08;88.90
25526;BME280;13424;48.424;11.258;2022-09-11T02:59:26;95631.75;;;16.02;88.31
25526;BME280;13424;48.424;11.258;2022-09-11T03:01:56;95639.25;;;16.15;88.20
25526;BME280;13424;48.424;11.258;2022-09-11T03:04:28;95638.47;;;16.10;88.93
25526;BME280;13424;48.424;11.258;2022-09-11T03:06:56;95628.81;;;15.94;89.21
25526;BME280;13424;48.424;11.258;2022-09-11T03:09:23;95635.81;;;15.95;89.35
25526;BME280;13424;48.424;11.258;2022-09-11T03:11:53;95626.16;;;15.88;89.22
25526;BME280;13424;48.424;11.258;2022-09-11T03:14:20;95629.66;;;15.89;89.40
25526;BME280;13424;48.424;11.258;2022-09-11T03:16:46;95625.84;;;16.00;88.85
25526;BME280;13424;48.424;11.258;2022-09-11T03:19:13;95632.31;;;16.04;88.76
25526;BME280;13424;48.424;11.258;2022-09-11T03:21:39;95638.44;;;16.20;88.17
25526;BME280;13424;48.424;11.258;2022-09-11T03:24:05;95632.00;;;16.11;88.09
25526;BME280;13424;48.424;11.258;2022-09-11T03:26:36;95635.78;;;16.15;88.47
25526;BME280;13424;48.424;11.258;2022-09-11T03:29:03;95632.00;;;16.16;88.33
25526;BME280;13424;48.424;11.258;2022-09-11T03:31:30;95623.44;;;15.99;88.34
25526;BME280;13424;48.424;11.258;2022-09-11T03:33:56;95622.06;;;16.06;88.76
25526;BME280;13424;48.424;11.258;2022-09-11T03:36:22;95620.47;;;16.00;88.97
25526;BME280;13424;48.424;11.258;2022-09-11T03:38:48;95619.94;;;15.98;88.74
25526;BME280;13424;48.424;11.258;2022-09-11T03:42:30;95622.84;;;16.17;88.89
25526;BME280;13424;48.424;11.258;2022-09-11T03:44:58;95616.66;;;16.16;88.78
25526;BME280;13424;48.424;11.258;2022-09-11T03:47:24;95621.22;;;16.11;87.83
25526;BME280;13424;48.424;11.258;2022-09-11T03:49:53;95621.56;;;15.99;88.20
25526;BME280;13424;48.424;11.258;2022-09-11T03:52:20;95619.91;;;16.08;88.65
25526;BME280;13424;48.424;11.258;2022-09-11T03:54:48;95625.28;;;16.08;88.66
25526;BME280;13424;48.424;11.258;2022-09-11T03:57:18;95615.59;;;16.12;88.49
25526;BME280;13424;48.424;11.258;2022-09-11T03:59:44;95624.22;;;16.09;87.96
25526;BME280;13424;48.424;11.258;2022-09-11T04:02:10;95625.56;;;16.12;88.19
25526;BME280;13424;48.424;11.258;2022-09-11T04:04:36;95618.78;;;16.30;87.81
25526;BME280;13424;48.424;11.258;2022-09-11T04:07:02;95623.97;;;16.06;88.93
25526;BME280;13424;48.424;11.258;2022-09-11T04:09:28;95626.31;;;16.23;87.92
25526;BME280;13424;48.424;11.258;2022-09-11T04:11:56;95626.84;;;16.30;87.23
25526;BME280;13424;48.424;11.258;2022-09-11T04:14:25;95630.94;;;16.12;87.68
25526;BME280;13424;48.424;11.258;2022-09-11T04:20:56;95616.66;;;16.16;87.87
25526;BME280;13424;48.424;11.258;2022-09-11T04:23:22;95618.81;;;16.14;87.86
25526;BME280;13424;48.424;11.258;2022-09-11T04:25:48;95628.00;;;15.93;88.59
25526;BME280;13424;48.424;11.258;2022-09-11T04:28:15;95621.78;;;16.03;88.34
25526;BME280;13424;48.424;11.258;2022-09-11T04:30:41;95621.75;;;16.23;87.57
25526;BME280;13424;48.424;11.258;2022-09-11T04:33:07;95620.72;;;16.09;87.83
25526;BME280;13424;48.424;11.258;2022-09-11T04:35:38;95620.19;;;16.12;87.46
25526;BME280;13424;48.424;11.258;2022-09-11T04:38:06;95623.88;;;16.31;87.12
25526;BME280;13424;48.424;11.258;2022-09-11T04:40:35;95626.09;;;16.14;87.59
25526;BME280;13424;48.424;11.258;2022-09-11T04:43:02;95623.91;;;16.21;87.86
25526;BME280;13424;48.424;11.258;2022-09-11T04:45:29;95613.97;;;16.16;87.92
25526;BME280;13424;48.424;11.258;2022-09-11T04:48:00;95621.00;;;16.02;88.50
25526;BME280;13424;48.424;11.258;2022-09-11T04:54:19;95627.94;;;16.24;87.52
25526;BME280;13424;48.424;11.258;2022-09-11T04:56:50;95621.75;;;16.23;87.81
25526;BME280;13424;48.424;11.258;2022-09-11T04:59:21;95624.44;;;16.18;87.10
25526;BME280;13424;48.424;11.258;2022-09-11T05:02:10;95625.25;;;16.18;87.43
25526;BME280;13424;48.424;11.258;2022-09-11T05:04:39;95627.50;;;15.96;88.30
25526;BME280;13424;48.424;11.258;2022-09-11T05:07:06;95633.88;;;16.15;87.70
25526;BME280;13424;48.424;11.258;2022-09-11T05:09:33;95630.69;;;15.98;88.32
25526;BME280;13424;48.424;11.258;2022-09-11T05:12:00;95625.00;;;16.15;87.97
25526;BME280;13424;48.424;11.258;2022-09-11T05:14:30;95624.44;;;16.23;87.97
25526;BME280;13424;48.424;11.258;2022-09-11T05:16:58;95631.44;;;16.19;87.53
25526;BME280;13424;48.424;11.258;2022-09-11T05:19:49;95639.03;;;16.07;87.41
25526;BME280;13424;48.424;11.258;2022-09-11T05:22:15;95635.25;;;16.13;87.06
25526;BME280;13424;48.424;11.258;2022-09-11T05:24:46;95638.22;;;16.06;87.81
25526;BME280;13424;48.424;11.258;2022-09-11T05:27:12;95634.47;;;15.97;87.98
25526;BME280;13424;48.424;11.258;2022-09-11T05:29:42;95641.72;;;16.02;87.83
25526;BME280;13424;48.424;11.258;2022-09-11T05:32:11;95640.94;;;15.91;88.40
25526;BME280;13424;48.424;11.258;2022-09-11T05:34:38;95646.00;;;16.13;88.34
25526;BME280;13424;48.424;11.258;2022-09-11T05:37:07;95651.34;;;16.23;87.21
25526;BME280;13424;48.424;11.258;2022-09-11T05:39:38;95652.44;;;16.17;87.42
25526;BME280;13424;48.424;11.258;2022-09-11T05:42:06;95657.88;;;15.97;88.42
25526;BME280;13424;48.424;11.258;2022-09-11T05:44:36;95657.00;;;16.11;87.78
25526;BME280;13424;48.424;11.258;2022-09-11T05:47:02;95657.78;;;16.32;87.03
25526;BME280;13424;48.424;11.258;2022-09-11T05:49:29;95665.66;;;16.13;87.13
25526;BME280;13424;48.424;11.258;2022-09-11T05:55:55;95670.47;;;16.22;87.59
25526;BME280;13424;48.424;11.258;2022-09-11T05:58:22;95669.91;;;16.25;87.80
25526;BME280;13424;48.424;11.258;2022-09-11T06:00:48;95674.00;;;16.12;88.23
25526;BME280;13424;48.424;11.258;2022-09-11T06:03:17;95670.72;;;16.25;88.43
25526;BME280;13424;48.424;11.258;2022-09-11T06:05:46;95683.66;;;16.08;89.41
25526;BME280;13424;48.424;11.258;2022-09-11T06:08:13;95679.63;;;15.95;90.92
25526;BME280;13424;48.424;11.258;2022-09-11T06:10:45;95676.97;;;16.00;90.20
25526;BME280;13424;48.424;11.258;2022-09-11T06:13:12;95684.78;;;15.76;90.78
25526;BME280;13424;48.424;11.258;2022-09-11T06:15:46;95686.59;;;16.27;89.21
25526;BME280;13424;48.424;11.258;2022-09-11T06:18:14;95693.06;;;16.21;89.40
25526;BME280;13424;48.424;11.258;2022-09-11T06:20:41;95699.25;;;16.21;89.23
25526;BME280;13424;48.424;11.258;2022-09-11T06:23:13;95690.63;;;16.29;88.80
25526;BME280;13424;48.424;11.258;2022-09-11T06:25:39;95698.22;;;15.91;90.18
25526;BME280;13424;48.424;11.258;2022-09-11T06:28:05;95698.44;;;16.10;90.21
25526;BME280;13424;48.424;11.258;2022-09-11T06:30:32;95700.59;;;16.18;89.79
25526;BME280;13424;48.424;11.258;2022-09-11T06:32:59;95701.16;;;16.15;89.79
25526;BME280;13424;48.424;11.258;2022-09-11T06:35:25;95700.09;;;16.01;90.13
25526;BME280;13424;48.424;11.258;2022-09-11T06:37:51;95711.63;;;16.22;90.06
25526;BME280;13424;48.424;11.258;2022-09-11T06:40:18;95710.56;;;16.28;90.16
25526;BME280;13424;48.424;11.258;2022-09-11T06:42:44;95701.91;;;16.36;89.37
25526;BME280;13424;48.424;11.258;2022-09-11T06:45:13;95710.81;;;16.11;91.19
25526;BME280;13424;48.424;11.258;2022-09-11T06:47:40;95715.91;;;16.38;89.13
25526;BME280;13424;48.424;11.258;2022-09-11T06:50:06;95714.56;;;16.36;89.49
25526;BME280;13424;48.424;11.258;2022-09-11T06:52:42;95713.78;;;16.25;89.91
25526;BME280;13424;48.424;11.258;2022-09-11T06:55:27;95712.41;;;16.33;89.35
25526;BME280;13424;48.424;11.258;2022-09-11T06:58:01;95714.84;;;16.29;89.63
25526;BME280;13424;48.424;11.258;2022-09-11T07:00:30;95723.44;;;16.26;89.97
25526;BME280;13424;48.424;11.258;2022-09-11T07:02:56;95716.94;;;16.42;89.38
25526;BME280;13424;48.424;11.258;2022-09-11T07:05:23;95723.38;;;16.62;88.43
25526;BME280;13424;48.424;11.258;2022-09-11T07:07:53;95719.16;;;16.30;89.65
25526;BME280;13424;48.424;11.258;2022-09-11T07:10:21;95719.97;;;16.36;89.97
25526;BME280;13424;48.424;11.258;2022-09-11T07:12:53;95726.66;;;16.38;89.67
25526;BME280;13424;48.424;11.258;2022-09-11T07:15:20;95720.78;;;16.21;90.86
25526;BME280;13424;48.424;11.258;2022-09-11T07:17:47;95736.34;;;16.44;89.83
25526;BME280;13424;48.424;11.258;2022-09-11T07:20:14;95734.22;;;16.26;90.13
25526;BME280;13424;48.424;11.258;2022-09-11T07:22:41;95734.78;;;16.28;90.79
25526;BME280;13424;48.424;11.258;2022-09-11T07:25:11;95740.91;;;16.54;89.69
25526;BME280;13424;48.424;11.258;2022-09-11T07:28:42;95738.44;;;16.58;88.75
25526;BME280;13424;48.424;11.258;2022-09-11T07:31:20;95743.56;;;16.69;89.08
25526;BME280;13424;48.424;11.258;2022-09-11T07:33:49;95746.81;;;16.61;88.89
25526;BME280;13424;48.424;11.258;2022-09-11T07:36:22;95744.34;;;16.85;88.58
25526;BME280;13424;48.424;11.258;2022-09-11T07:38:51;95753.47;;;16.89;88.37
25526;BME280;13424;48.424;11.258;2022-09-11T07:41:21;95762.09;;;16.91;89.08
25526;BME280;13424;48.424;11.258;2022-09-11T07:43:56;95755.16;;;16.60;89.08
25526;BME280;13424;48.424;11.258;2022-09-11T07:46:26;95757.28;;;16.73;88.58
25526;BME280;13424;48.424;11.258;2022-09-11T07:48:54;95763.75;;;16.72;88.97
25526;BME280;13424;48.424;11.258;2022-09-11T07:51:20;95770.22;;;16.56;89.46
25526;BME280;13424;48.424;11.258;2022-09-11T07:53:51;95762.09;;;16.81;88.86
25526;BME280;13424;48.424;11.258;2022-09-11T07:56:23;95770.97;;;16.87;88.53
25526;BME280;13424;48.424;11.258;2022-09-11T07:58:51;95773.69;;;16.82;88.35
25526;BME280;13424;48.424;11.258;2022-09-11T08:01:25;95781.00;;;16.76;88.64
25526;BME280;13424;48.424;11.258;2022-09-11T08:04:02;95775.53;;;16.96;87.99
25526;BME280;13424;48.424;11.258;2022-09-11T08:06:33;95779.22;;;17.16;87.22
25526;BME280;13424;48.424;11.258;2022-09-11T08:09:07;95781.94;;;17.11;87.34
25526;BME280;13424;48.424;11.258;2022-09-11T08:12:14;95783.09;;;16.89;87.91
25526;BME280;13424;48.424;11.258;2022-09-11T08:14:40;95782.28;;;16.94;88.35
25526;BME280;13424;48.424;11.258;2022-09-11T08:17:13;95785.25;;;16.87;88.69
25526;BME280;13424;48.424;11.258;2022-09-11T08:19:39;95791.94;;;17.05;88.21
25526;BME280;13424;48.424;11.258;2022-09-11T08:22:08;95788.75;;;16.88;89.07
25526;BME280;13424;48.424;11.258;2022-09-11T08:24:41;95791.13;;;17.10;88.82
25526;BME280;13424;48.424;11.258;2022-09-11T08:27:07;95797.53;;;17.14;88.74
25526;BME280;13424;48.424;11.258;2022-09-11T08:29:36;95798.13;;;17.06;88.77
25526;BME280;13424;48.424;11.258;2022-09-11T08:32:03;95797.06;;;17.01;89.04
25526;BME280;13424;48.424;11.258;2022-09-11T08:34:32;95803.44;;;17.21;88.66
25526;BME280;13424;48.424;11.258;2022-09-11T08:36:58;95808.41;;;16.93;89.47
25526;BME280;13424;48.424;11.258;2022-09-11T08:39:27;95815.94;;;17.01;89.42
25526;BME280;13424;48.424;11.258;2022-09-11T08:42:07;95814.63;;;16.89;88.69
25526;BME280;13424;48.424;11.258;2022-09-11T08:44:56;95811.91;;;16.99;89.44
25526;BME280;13424;48.424;11.258;2022-09-11T08:47:36;95814.84;;;17.08;89.58
25526;BME280;13424;48.424;11.258;2022-09-11T08:50:33;95828.13;;;16.79;89.81
25526;BME280;13424;48.424;11.258;2022-09-11T08:53:02;95826.66;;;17.17;89.23
25526;BME280;13424;48.424;11.258;2022-09-11T08:55:55;95833.66;;;17.18;89.16
25526;BME280;13424;48.424;11.258;2022-09-11T08:58:41;95830.63;;;17.35;89.11
25526;BME280;13424;48.424;11.258;2022-09-11T09:01:36;95826.72;;;17.01;89.39
25526;BME280;13424;48.424;11.258;2022-09-11T09:07:56;95842.13;;;17.55;88.01
25526;BME280;13424;48.424;11.258;2022-09-11T09:11:08;95838.50;;;17.80;87.82
25526;BME280;13424;48.424;11.258;2022-09-11T09:14:20;95850.53;;;17.98;86.83
25526;BME280;13424;48.424;11.258;2022-09-11T09:20:12;95850.44;;;18.08;86.81
25526;BME280;13424;48.424;11.258;2022-09-11T09:23:12;95856.81;;;17.89;88.07
25526;BME280;13424;48.424;11.258;2022-09-11T09:25:45;95859.13;;;18.05;87.41
25526;BME280;13424;48.424;11.258;2022-09-11T09:28:37;95864.00;;;18.03;86.13
25526;BME280;13424;48.424;11.258;2022-09-11T09:31:08;95868.38;;;18.33;84.75
25526;BME280;13424;48.424;11.258;2022-09-11T09:34:03;95858.25;;;18.49;84.42
25526;BME280;13424;48.424;11.258;2022-09-11T09:36:54;95867.06;;;18.60;84.38
25526;BME280;13424;48.424;11.258;2022-09-11T09:39:22;95870.00;;;18.68;84.48
25526;BME280;13424;48.424;11.258;2022-09-11T09:42:15;95865.63;;;18.38;84.18
25526;BME280;13424;48.424;11.258;2022-09-11T09:47:47;95878.94;;;18.93;83.09
25526;BME280;13424;48.424;11.258;2022-09-11T09:50:28;95869.56;;;19.14;82.32
25526;BME280;13424;48.424;11.258;2022-09-11T09:55:55;95878.47;;;18.86;82.45
25526;BME280;13424;48.424;11.258;2022-09-11T09:58:32;95876.56;;;18.86;81.92
25526;BME280;13424;48.424;11.258;2022-09-11T10:01:44;95874.97;;;19.38;80.41
25526;BME280;13424;48.424;11.258;2022-09-11T10:04:27;95876.41;;;19.31;82.41
25526;BME280;13424;48.424;11.258;2022-09-11T10:07:20;95877.31;;;19.45;79.90
25526;BME280;13424;48.424;11.258;2022-09-11T10:09:53;95880.88;;;19.64;78.42
25526;BME280;13424;48.424;11.258;2022-09-11T10:12:25;95870.69;;;19.99;78.48
25526;BME280;13424;48.424;11.258;2022-09-11T10:14:59;95879.13;;;20.68;77.05
25526;BME280;13424;48.424;11.258;2022-09-11T10:17:33;95870.19;;;20.16;75.95
25526;BME280;13424;48.424;11.258;2022-09-11T10:20:23;95870.31;;;20.24;76.07
25526;BME280;13424;48.424;11.258;2022-09-11T10:26:48;95882.44;;;20.65;74.78
25526;BME280;13424;48.424;11.258;2022-09-11T10:29:25;95878.56;;;20.52;74.88
25526;BME280;13424;48.424;11.258;2022-09-11T10:32:00;95884.44;;;20.40;76.08
25526;BME280;13424;48.424;11.258;2022-09-11T10:34:36;95873.41;;;19.99;76.77
25526;BME280;13424;48.424;11.258;2022-09-11T10:37:23;95885.75;;;20.24;75.86
25526;BME280;13424;48.424;11.258;2022-09-11T10:39:51;95878.06;;;20.82;75.54
25526;BME280;13424;48.424;11.258;2022-09-11T10:42:27;95881.41;;;20.60;72.86
25526;BME280;13424;48.424;11.258;2022-09-11T10:45:10;95879.69;;;20.83;73.55
25526;BME280;13424;48.424;11.258;2022-09-11T10:47:40;95878.69;;;20.79;72.43
25526;BME280;13424;48.424;11.258;2022-09-11T10:52:57;95878.53;;;21.03;73.53
25526;BME280;13424;48.424;11.258;2022-09-11T10:55:34;95882.09;;;20.85;72.96
25526;BME280;13424;48.424;11.258;2022-09-11T10:58:15;95885.75;;;20.94;73.72
25526;BME280;13424;48.424;11.258;2022-09-11T11:00:42;95881.50;;;20.88;71.90
25526;BME280;13424;48.424;11.258;2022-09-11T11:03:24;95882.81;;;20.58;73.62
25526;BME280;13424;48.424;11.258;2022-09-11T11:12:21;95878.97;;;20.78;74.55
25526;BME280;13424;48.424;11.258;2022-09-11T11:15:28;95884.19;;;20.36;73.92
25526;BME280;13424;48.424;11.258;2022-09-11T11:18:54;95892.22;;;20.47;73.95
25526;BME280;13424;48.424;11.258;2022-09-11T11:37:20;95902.72;;;20.29;72.89
25526;BME280;13424;48.424;11.258;2022-09-11T11:40:39;95907.28;;;20.53;72.25
25526;BME280;13424;48.424;11.258;2022-09-11T11:43:12;95910.09;;;20.80;70.92
25526;BME280;13424;48.424;11.258;2022-09-11T11:46:01;95909.03;;;20.44;72.08
25526;BME280;13424;48.424;11.258;2022-09-11T11:48:45;95916.44;;;20.38;72.59
25526;BME280;13424;48.424;11.258;2022-09-11T11:51:33;95911.81;;;20.90;72.82
25526;BME280;13424;48.424;11.258;2022-09-11T11:54:22;95915.81;;;20.79;69.94
25526;BME280;13424;48.424;11.258;2022-09-11T11:57:05;95912.84;;;20.94;69.19
25526;BME280;13424;48.424;11.258;2022-09-11T12:00:04;95919.06;;;21.27;69.68
25526;BME280;13424;48.424;11.258;2022-09-11T12:03:01;95918.97;;;21.60;69.78
25526;BME280;13424;48.424;11.258;2022-09-11T12:05:34;95907.50;;;21.63;69.04
25526;BME280;13424;48.424;11.258;2022-09-11T12:08:03;95916.56;;;21.44;69.78
25526;BME280;13424;48.424;11.258;2022-09-11T12:10:38;95917.19;;;21.41;70.49
25526;BME280;13424;48.424;11.258;2022-09-11T12:13:14;95911.47;;;21.57;67.65
25526;BME280;13424;48.424;11.258;2022-09-11T12:16:20;95907.75;;;22.02;67.67
25526;BME280;13424;48.424;11.258;2022-09-11T12:19:15;95907.81;;;21.61;67.58
25526;BME280;13424;48.424;11.258;2022-09-11T12:27:52;95916.53;;;21.72;69.60
25526;BME280;13424;48.424;11.258;2022-09-11T12:32:58;95913.66;;;22.91;66.54
25526;BME280;13424;48.424;11.258;2022-09-11T12:35:48;95910.22;;;22.04;66.88
25526;BME280;13424;48.424;11.258;2022-09-11T12:38:36;95918.72;;;22.25;67.83
25526;BME280;13424;48.424;11.258;2022-09-11T12:41:31;95912.91;;;22.18;67.59
25526;BME280;13424;48.424;11.258;2022-09-11T12:44:30;95913.69;;;22.18;68.05
25526;BME280;13424;48.424;11.258;2022-09-11T12:49:23;95910.69;;;22.78;67.62
25526;BME280;13424;48.424;11.258;2022-09-11T12:51:57;95908.38;;;23.17;64.86
25526;BME280;13424;48.424;11.258;2022-09-11T12:54:37;95899.97;;;22.37;64.32
25526;BME280;13424;48.424;11.258;2022-09-11T12:57:27;95902.50;;;23.23;64.62
25526;BME280;13424;48.424;11.258;2022-09-11T13:00:06;95901.13;;;23.83;63.75
25526;BME280;13424;48.424;11.258;2022-09-11T13:02:43;95901.53;;;23.28;63.86
25526;BME280;13424;48.424;11.258;2022-09-11T13:06:08;95900.97;;;23.79;66.13
25526;BME280;13424;48.424;11.258;2022-09-11T13:08:55;95902.09;;;22.63;66.08
25526;BME280;13424;48.424;11.258;2022-09-11T13:11:45;95899.25;;;22.68;67.34
25526;BME280;13424;48.424;11.258;2022-09-11T13:17:31;95892.16;;;22.36;67.55
25526;BME280;13424;48.424;11.258;2022-09-11T13:20:22;95891.91;;;22.46;66.21
25526;BME280;13424;48.424;11.258;2022-09-11T13:22:50;95895.06;;;22.62;64.46
25526;BME280;13424;48.424;11.258;2022-09-11T13:25:20;95894.38;;;22.78;63.95
25526;BME280;13424;48.424;11.258;2022-09-11T13:27:54;95891.31;;;22.80;63.72
25526;BME280;13424;48.424;11.258;2022-09-11T13:30:24;95892.56;;;22.29;65.21
25526;BME280;13424;48.424;11.258;2022-09-11T13:33:13;95893.19;;;22.48;65.30
25526;BME280;13424;48.424;11.258;2022-09-11T13:35:43;95891.00;;;22.59;63.93
25526;BME280;13424;48.424;11.258;2022-09-11T13:38:19;95893.66;;;22.50;62.89
25526;BME280;13424;48.424;11.258;2022-09-11T13:41:27;95888.00;;;22.61;63.51
25526;BME280;13424;48.424;11.258;2022-09-11T13:44:00;95893.63;;;22.64;64.07
25526;BME280;13424;48.424;11.258;2022-09-11T13:46:32;95887.31;;;22.33;63.89
25526;BME280;13424;48.424;11.258;2022-09-11T13:51:42;95893.72;;;22.81;62.95
25526;BME280;13424;48.424;11.258;2022-09-11T14:05:26;95882.34;;;22.93;61.03
25526;BME280;13424;48.424;11.258;2022-09-11T14:08:22;95884.63;;;23.00;61.81
25526;BME280;13424;48.424;11.258;2022-09-11T14:10:57;95886.91;;;22.84;61.69
25526;BME280;13424;48.424;11.258;2022-09-11T14:13:49;95883.97;;;22.58;60.60
25526;BME280;13424;48.424;11.258;2022-09-11T14:17:04;95879.16;;;22.33;62.42
25526;BME280;13424;48.424;11.258;2022-09-11T14:19:35;95879.66;;;23.02;61.93
25526;BME280;13424;48.424;11.258;2022-09-11T14:22:13;95872.78;;;22.82;62.87
25526;BME280;13424;48.424;11.258;2022-09-11T14:29:57;95882.69;;;23.00;62.60
25526;BME280;13424;48.424;11.258;2022-09-11T14:32:36;95882.09;;;23.12;61.73
25526;BME280;13424;48.424;11.258;2022-09-11T14:35:09;95882.59;;;23.14;60.97
25526;BME280;13424;48.424;11.258;2022-09-11T14:37:42;95882.72;;;23.40;62.26
25526;BME280;13424;48.424;11.258;2022-09-11T14:40:17;95882.31;;;23.16;62.08
25526;BME280;13424;48.424;11.258;2022-09-11T14:42:44;95880.47;;;22.80;62.98
25526;BME280;13424;48.424;11.258;2022-09-11T14:45:23;95883.22;;;23.11;63.20
25526;BME280;13424;48.424;11.258;2022-09-11T14:47:51;95881.03;;;23.22;63.61
25526;BME280;13424;48.424;11.258;2022-09-11T14:50:18;95878.22;;;22.82;63.45
25526;BME280;13424;48.424;11.258;2022-09-11T14:52:44;95877.66;;;22.85;62.66
25526;BME280;13424;48.424;11.258;2022-09-11T14:55:19;95875.38;;;23.09;63.96
25526;BME280;13424;48.424;11.258;2022-09-11T14:57:45;95874.25;;;23.10;62.80
25526;BME280;13424;48.424;11.258;2022-09-11T15:00:17;95873.41;;;22.79;62.65
25526;BME280;13424;48.424;11.258;2022-09-11T15:06:51;95869.25;;;22.81;63.42
25526;BME280;13424;48.424;11.258;2022-09-11T15:09:21;95869.38;;;21.95;64.18
25526;BME280;13424;48.424;11.258;2022-09-11T15:11:47;95864.41;;;22.11;65.35
25526;BME280;13424;48.424;11.258;2022-09-11T15:14:15;95868.56;;;22.67;62.52
25526;BME280;13424;48.424;11.258;2022-09-11T15:16:42;95862.81;;;22.46;62.00
25526;BME280;13424;48.424;11.258;2022-09-11T15:19:09;95857.66;;;21.72;63.69
25526;BME280;13424;48.424;11.258;2022-09-11T15:26:01;95860.09;;;22.46;63.95
25526;BME280;13424;48.424;11.258;2022-09-11T15:28:29;95863.41;;;22.66;62.58
25526;BME280;13424;48.424;11.258;2022-09-11T15:30:58;95859.78;;;22.12;62.38
25526;BME280;13424;48.424;11.258;2022-09-11T15:33:29;95874.31;;;21.93;62.72
25526;BME280;13424;48.424;11.258;2022-09-11T15:36:02;95862.13;;;22.05;63.03
25526;BME280;13424;48.424;11.258;2022-09-11T15:38:28;95862.94;;;21.91;63.60
25526;BME280;13424;48.424;11.258;2022-09-11T15:40:54;95863.44;;;21.93;64.57
25526;BME280;13424;48.424;11.258;2022-09-11T15:43:23;95859.66;;;21.67;65.62
25526;BME280;13424;48.424;11.258;2022-09-11T15:45:49;95864.88;;;21.91;64.05